createdAt,value
2018-06-17T00:03:17.103Z,21.30
2018-06-17T00:05:46.676Z,21.30
2018-06-17T00:15:43.526Z,21.30
2018-06-17T00:20:42.200Z,21.20
2018-06-17T00:23:11.808Z,21.20
2018-06-17T00:35:38.460Z,21.20
2018-06-17T00:40:37.164Z,21.20
2018-06-17T00:45:35.813Z,21.20
2018-06-17T00:48:05.319Z,21.20
2018-06-17T00:50:34.849Z,21.10
2018-06-17T01:05:30.235Z,21.10
2018-06-17T01:10:28.864Z,21.10
2018-06-17T01:15:27.465Z,21.10
2018-06-17T01:22:55.182Z,21.10
2018-06-17T01:25:24.724Z,21.10
2018-06-17T01:30:23.395Z,21.10
2018-06-17T01:32:52.953Z,21.10
2018-06-17T01:35:22.487Z,21.00
2018-06-17T01:37:52.140Z,21.00
2018-06-17T01:40:21.684Z,21.00
2018-06-17T01:45:20.384Z,21.00
2018-06-17T01:57:46.770Z,21.00
2018-06-17T02:10:34.543Z,21.00
2018-06-17T02:13:04.094Z,20.90
2018-06-17T02:15:33.616Z,20.80
2018-06-17T02:25:30.605Z,20.80
2018-06-17T02:30:29.242Z,20.80
2018-06-17T02:37:57.152Z,20.80
2018-06-17T02:42:55.784Z,20.70
2018-06-17T02:58:12.687Z,20.70
2018-06-17T03:00:42.236Z,20.70
2018-06-17T03:10:38.993Z,20.70
2018-06-17T03:20:35.774Z,20.70
2018-06-17T03:23:05.463Z,20.60
2018-06-17T03:30:49.634Z,20.60
2018-06-17T03:43:26.451Z,20.60
2018-06-17T03:53:23.452Z,20.80
2018-06-17T04:05:49.867Z,20.80
2018-06-17T04:10:48.916Z,20.70
2018-06-17T04:20:46.398Z,20.70
2018-06-17T04:45:38.180Z,20.70
2018-06-17T04:48:07.804Z,20.70
2018-06-17T04:50:37.382Z,20.70
2018-06-17T04:55:36.076Z,20.80
2018-06-17T05:00:34.876Z,20.80
2018-06-17T05:05:33.632Z,20.80
2018-06-17T05:08:03.154Z,20.70
2018-06-17T05:10:32.709Z,20.70
2018-06-17T05:13:02.230Z,20.80
2018-06-17T05:15:32.512Z,20.80
2018-06-17T05:18:03.839Z,20.80
2018-06-17T05:23:03.933Z,20.90
2018-06-17T05:37:59.111Z,20.90
2018-06-17T06:15:53.635Z,21.30
2018-06-17T06:18:23.175Z,21.30
2018-06-17T06:20:52.712Z,21.30
2018-06-17T06:23:22.252Z,21.30
2018-06-17T06:25:51.789Z,21.40
2018-06-17T06:28:21.324Z,21.60
2018-06-17T06:30:50.848Z,21.70
2018-06-17T06:33:20.381Z,21.80
2018-06-17T06:35:49.930Z,21.90
2018-06-17T06:38:19.980Z,22.00
2018-06-17T06:43:18.681Z,22.10
2018-06-17T06:45:48.210Z,22.20
2018-06-17T06:50:47.271Z,22.50
2018-06-17T06:58:15.343Z,22.70
2018-06-17T07:00:44.896Z,22.80
2018-06-17T07:06:00.431Z,23.00
2018-06-17T07:13:34.354Z,23.10
2018-06-17T07:16:15.157Z,23.10
2018-06-17T07:21:13.818Z,23.20
2018-06-17T07:26:24.942Z,23.30
2018-06-17T07:29:06.224Z,23.40
2018-06-17T07:31:36.138Z,23.50
2018-06-17T07:39:16.409Z,23.60
2018-06-17T07:46:45.074Z,23.30
2018-06-17T07:49:27.826Z,23.20
2018-06-17T07:52:09.549Z,23.20
2018-06-17T07:54:40.371Z,23.30
2018-06-17T08:02:09.820Z,23.50
2018-06-17T08:04:39.366Z,23.50
2018-06-17T08:07:09.327Z,23.50
2018-06-17T08:12:10.107Z,23.60
2018-06-17T08:24:37.228Z,23.70
2018-06-17T08:27:06.795Z,23.70
2018-06-17T08:32:05.386Z,23.30
2018-06-17T08:34:34.903Z,23.30
2018-06-17T08:42:02.753Z,23.40
2018-06-17T08:44:32.743Z,23.50
2018-06-17T08:49:31.427Z,23.60
2018-06-17T08:52:01.169Z,23.50
2018-06-17T08:54:30.688Z,23.50
2018-06-17T09:04:27.454Z,23.70
2018-06-17T09:14:25.160Z,23.50
2018-06-17T09:16:54.825Z,23.50
2018-06-17T09:19:24.382Z,23.50
2018-06-17T09:29:21.393Z,23.70
2018-06-17T09:34:20.084Z,23.90
2018-06-17T09:36:49.631Z,23.90
2018-06-17T09:41:48.275Z,23.80
2018-06-17T09:44:17.830Z,23.90
2018-06-17T09:54:14.919Z,23.70
2018-06-17T10:01:42.963Z,23.60
2018-06-17T10:04:12.561Z,23.60
2018-06-17T10:09:11.637Z,23.50
2018-06-17T10:11:41.193Z,23.50
2018-06-17T10:14:10.724Z,23.60
2018-06-17T10:16:40.267Z,23.50
2018-06-17T10:34:04.792Z,23.50
2018-06-17T10:36:34.976Z,23.50
2018-06-17T10:39:07.415Z,23.50
2018-06-17T10:41:36.945Z,23.60
2018-06-17T10:46:35.581Z,23.60
2018-06-17T10:49:05.204Z,23.60
2018-06-17T10:51:34.748Z,23.60
2018-06-17T10:54:04.285Z,23.60
2018-06-17T10:56:33.821Z,23.70
2018-06-17T10:59:03.374Z,23.70
2018-06-17T11:09:00.609Z,23.60
2018-06-17T11:11:30.159Z,23.60
2018-06-17T11:16:28.809Z,23.70
2018-06-17T11:18:58.363Z,23.70
2018-06-17T11:23:58.081Z,23.80
2018-06-17T11:36:24.059Z,23.80
2018-06-17T11:38:53.610Z,23.70
2018-06-17T11:48:50.900Z,23.60
2018-06-17T11:51:20.470Z,23.60
2018-06-17T11:56:19.093Z,23.60
2018-06-17T11:58:48.745Z,23.70
2018-06-17T12:06:16.999Z,23.70
2018-06-17T12:11:15.704Z,23.70
2018-06-17T12:13:45.261Z,23.80
2018-06-17T12:23:42.815Z,23.70
2018-06-17T12:26:12.491Z,23.60
2018-06-17T12:33:40.719Z,23.60
2018-06-17T12:41:09.240Z,23.60
2018-06-17T12:43:38.775Z,23.50
2018-06-17T12:48:37.824Z,23.60
2018-06-17T12:58:34.893Z,23.60
2018-06-17T13:01:04.442Z,23.60
2018-06-17T13:03:34.005Z,23.60
2018-06-17T13:13:30.799Z,23.70
2018-06-17T13:18:29.592Z,23.70
2018-06-17T13:20:59.131Z,23.70
2018-06-17T13:25:57.835Z,23.80
2018-06-17T13:28:27.399Z,23.80
2018-06-17T13:33:26.078Z,23.80
2018-06-17T13:40:54.005Z,23.80
2018-06-17T13:43:23.548Z,23.80
2018-06-17T13:45:53.092Z,23.80
2018-06-17T13:48:22.652Z,23.90
2018-06-17T13:50:52.192Z,23.80
2018-06-17T13:55:50.920Z,23.80
2018-06-17T13:58:20.689Z,23.80
2018-06-17T14:00:50.213Z,23.80
2018-06-17T14:03:19.800Z,23.80
2018-06-17T14:08:18.424Z,23.80
2018-06-17T14:10:47.955Z,23.70
2018-06-17T14:15:46.576Z,23.80
2018-06-17T14:18:16.115Z,23.80
2018-06-17T14:28:12.927Z,23.80
2018-06-17T14:33:11.737Z,23.70
2018-06-17T14:35:41.255Z,23.70
2018-06-17T14:38:10.789Z,23.70
2018-06-17T14:40:45.668Z,23.60
2018-06-17T14:50:31.816Z,23.70
2018-06-17T14:58:02.648Z,23.70
2018-06-17T15:00:32.227Z,23.60
2018-06-17T15:05:30.858Z,23.60
2018-06-17T15:15:27.648Z,23.60
2018-06-17T15:17:57.196Z,23.60
2018-06-17T15:22:55.792Z,23.60
2018-06-17T15:32:57.907Z,23.60
2018-06-17T15:35:32.865Z,23.60
2018-06-17T15:38:07.705Z,23.60
2018-06-17T15:40:42.734Z,23.60
2018-06-17T15:43:12.292Z,23.60
2018-06-17T15:45:41.842Z,23.60
2018-06-17T15:48:11.367Z,23.60
2018-06-17T15:53:09.989Z,23.60
2018-06-17T15:55:39.525Z,23.60
2018-06-17T16:00:38.251Z,23.50
2018-06-17T16:03:07.772Z,23.50
2018-06-17T16:15:44.591Z,23.50
2018-06-17T16:18:19.531Z,23.60
2018-06-17T16:20:54.508Z,23.50
2018-06-17T16:25:53.133Z,23.50
2018-06-17T16:40:48.285Z,23.50
2018-06-17T16:50:50.593Z,23.50
2018-06-17T17:00:36.864Z,23.50
2018-06-17T17:03:06.408Z,23.50
2018-06-17T17:08:05.051Z,23.50
2018-06-17T17:23:00.218Z,23.50
2018-06-17T17:25:29.756Z,23.40
2018-06-17T17:30:28.388Z,23.20
2018-06-17T17:35:37.932Z,22.70
2018-06-17T17:45:48.479Z,22.30
2018-06-17T17:50:47.303Z,22.20
2018-06-17T18:00:44.124Z,22.00
2018-06-17T18:03:13.700Z,21.90
2018-06-17T18:05:43.217Z,21.90
2018-06-17T18:08:12.748Z,21.90
2018-06-17T18:10:42.272Z,21.80
2018-06-17T18:15:41.053Z,21.70
2018-06-17T18:18:10.588Z,21.70
2018-06-17T18:23:09.282Z,21.70
2018-06-17T18:30:53.470Z,21.60
2018-06-17T18:38:31.970Z,21.60
2018-06-17T18:48:28.788Z,21.50
2018-06-17T18:55:56.778Z,21.40
2018-06-17T19:00:55.819Z,21.30
2018-06-17T19:05:54.516Z,21.20
2018-06-17T19:11:03.924Z,21.20
2018-06-17T19:16:31.883Z,21.00
2018-06-17T19:28:58.679Z,21.50
2018-06-17T19:33:57.476Z,21.70
2018-06-17T19:43:54.677Z,21.80
2018-06-17T19:51:27.960Z,21.80
2018-06-17T19:56:37.452Z,21.80
2018-06-17T19:59:12.338Z,21.80
2018-06-17T20:04:10.977Z,21.80
2018-06-17T20:14:09.845Z,21.90
2018-06-17T20:16:39.467Z,21.80
2018-06-17T20:21:38.160Z,21.90
2018-06-17T20:26:36.816Z,21.90
2018-06-17T20:29:06.606Z,21.90
2018-06-17T20:31:40.700Z,21.80
2018-06-17T20:34:15.688Z,21.90
2018-06-17T20:36:50.560Z,21.80
2018-06-17T20:41:59.881Z,21.90
2018-06-17T20:44:29.457Z,21.90
2018-06-17T20:49:28.085Z,21.80
2018-06-17T20:51:57.643Z,21.80
2018-06-17T20:59:25.571Z,21.80
2018-06-17T21:04:24.459Z,21.80
2018-06-17T21:06:54.006Z,21.80
2018-06-17T21:16:50.840Z,21.80
2018-06-17T21:22:00.337Z,21.70
2018-06-17T21:24:35.216Z,21.70
2018-06-17T21:29:39.371Z,21.70
2018-06-17T21:34:38.060Z,21.70
2018-06-17T21:39:36.701Z,21.70
2018-06-17T21:42:06.243Z,21.70
2018-06-17T21:44:35.767Z,21.70
2018-06-17T21:49:34.604Z,21.70
2018-06-17T21:54:33.219Z,21.60
2018-06-17T21:57:02.815Z,21.60
2018-06-17T22:09:39.309Z,21.60
2018-06-17T22:14:48.963Z,21.60
2018-06-17T22:17:23.803Z,21.60
2018-06-17T22:27:20.610Z,21.60
2018-06-17T22:32:19.247Z,21.50
2018-06-17T22:34:48.783Z,21.50
2018-06-17T22:44:45.565Z,21.50
2018-06-17T22:47:19.338Z,21.50
2018-06-17T22:49:48.884Z,21.50
2018-06-17T22:52:18.465Z,21.50
2018-06-17T22:59:58.197Z,21.50
2018-06-17T23:02:33.339Z,21.50
2018-06-17T23:05:08.177Z,21.50
2018-06-17T23:10:12.644Z,21.50
2018-06-17T23:15:11.239Z,21.40
2018-06-17T23:20:09.870Z,21.40
2018-06-17T23:22:39.445Z,21.40
2018-06-17T23:25:08.979Z,21.40
2018-06-17T23:30:07.997Z,21.40
2018-06-17T23:35:06.597Z,21.30
2018-06-17T23:37:36.139Z,21.30
2018-06-17T23:40:05.679Z,21.40
2018-06-17T23:42:35.205Z,21.30
2018-06-17T23:45:04.856Z,21.30
2018-06-17T23:52:48.877Z,21.30
